createdAt,value
2022-12-19T00:02:04.954Z,100.00
2022-12-19T00:05:07.772Z,100.00
2022-12-19T00:08:17.808Z,100.00
2022-12-19T00:11:23.571Z,100.00
2022-12-19T00:14:25.757Z,100.00
2022-12-19T00:17:28.503Z,100.00
2022-12-19T00:20:30.585Z,100.00
2022-12-19T00:23:34.753Z,100.00
2022-12-19T00:26:39.462Z,100.00
2022-12-19T00:29:41.853Z,100.00
2022-12-19T00:32:43.995Z,100.00
2022-12-19T00:35:46.380Z,100.00
2022-12-19T00:38:51.050Z,100.00
2022-12-19T00:41:53.400Z,100.00
2022-12-19T00:44:58.004Z,100.00
2022-12-19T00:48:01.519Z,100.00
2022-12-19T00:51:11.302Z,100.00
2022-12-19T00:54:13.853Z,100.00
2022-12-19T00:57:17.047Z,100.00
2022-12-19T01:00:19.513Z,100.00
2022-12-19T01:03:21.685Z,100.00
2022-12-19T01:06:27.045Z,100.00
2022-12-19T01:09:29.723Z,100.00
2022-12-19T01:12:47.092Z,100.00
2022-12-19T01:15:49.309Z,100.00
2022-12-19T01:18:51.781Z,100.00
2022-12-19T01:21:54.067Z,100.00
2022-12-19T01:24:56.863Z,100.00
2022-12-19T01:27:59.090Z,100.00
2022-12-19T01:31:05.533Z,100.00
2022-12-19T01:34:10.075Z,100.00
2022-12-19T01:37:12.481Z,100.00
2022-12-19T01:40:14.665Z,100.00
2022-12-19T01:43:18.028Z,100.00
2022-12-19T01:46:27.696Z,100.00
2022-12-19T01:49:34.544Z,100.00
2022-12-19T01:52:36.691Z,100.00
2022-12-19T01:55:39.996Z,100.00
2022-12-19T01:58:47.686Z,100.00
2022-12-19T02:01:54.470Z,100.00
2022-12-19T02:04:57.102Z,100.00
2022-12-19T02:08:00.863Z,100.00
2022-12-19T02:11:05.061Z,100.00
2022-12-19T02:14:07.375Z,100.00
2022-12-19T02:17:15.804Z,100.00
2022-12-19T02:20:20.670Z,100.00
2022-12-19T02:23:32.086Z,100.00
2022-12-19T02:26:34.642Z,100.00
2022-12-19T02:29:56.612Z,100.00
2022-12-19T02:33:10.320Z,100.00
2022-12-19T02:36:19.563Z,100.00
2022-12-19T02:39:48.428Z,100.00
2022-12-19T02:42:57.291Z,100.00
2022-12-19T02:46:00.821Z,100.00
2022-12-19T02:49:05.124Z,100.00
2022-12-19T02:52:33.529Z,100.00
2022-12-19T02:56:15.494Z,100.00
2022-12-19T02:59:43.104Z,100.00
2022-12-19T03:03:00.603Z,100.00
2022-12-19T03:06:26.934Z,100.00
2022-12-19T03:09:39.033Z,100.00
2022-12-19T03:12:51.501Z,100.00
2022-12-19T03:15:54.151Z,100.00
2022-12-19T03:18:57.709Z,100.00
2022-12-19T03:22:00.494Z,100.00
2022-12-19T03:25:03.210Z,100.00
2022-12-19T03:28:11.863Z,100.00
2022-12-19T03:31:16.928Z,100.00
2022-12-19T03:34:28.361Z,100.00
2022-12-19T03:37:36.363Z,100.00
2022-12-19T03:40:41.997Z,100.00
2022-12-19T03:43:45.537Z,100.00
2022-12-19T03:46:54.731Z,100.00
2022-12-19T03:49:57.154Z,100.00
2022-12-19T03:53:26.312Z,100.00
2022-12-19T03:56:53.153Z,100.00
2022-12-19T04:00:03.403Z,100.00
2022-12-19T04:03:17.697Z,100.00
2022-12-19T04:06:20.655Z,100.00
2022-12-19T04:09:23.828Z,100.00
2022-12-19T04:12:33.941Z,100.00
2022-12-19T04:15:46.701Z,100.00
2022-12-19T04:18:58.895Z,100.00
2022-12-19T04:22:10.207Z,100.00
2022-12-19T04:25:29.591Z,100.00
2022-12-19T04:28:37.511Z,100.00
2022-12-19T04:31:40.348Z,100.00
2022-12-19T04:34:43.168Z,100.00
2022-12-19T04:37:45.855Z,100.00
2022-12-19T04:40:48.026Z,100.00
2022-12-19T04:43:50.378Z,100.00
2022-12-19T04:46:52.568Z,100.00
2022-12-19T04:49:54.996Z,100.00
2022-12-19T04:52:57.351Z,100.00
2022-12-19T04:56:09.478Z,100.00
2022-12-19T04:59:11.712Z,100.00
2022-12-19T05:02:14.174Z,100.00
2022-12-19T05:05:18.087Z,100.00
2022-12-19T05:08:20.586Z,100.00
2022-12-19T05:11:22.799Z,100.00
2022-12-19T05:14:25.301Z,100.00
2022-12-19T05:17:27.451Z,100.00
2022-12-19T05:20:29.904Z,100.00
2022-12-19T05:23:32.110Z,100.00
2022-12-19T05:26:34.500Z,100.00
2022-12-19T05:29:36.574Z,100.00
2022-12-19T05:32:39.046Z,100.00
2022-12-19T05:35:41.195Z,100.00
2022-12-19T05:38:44.183Z,100.00
2022-12-19T05:41:49.033Z,100.00
2022-12-19T05:44:51.760Z,100.00
2022-12-19T05:47:57.540Z,100.00
2022-12-19T05:51:02.757Z,100.00
2022-12-19T05:54:05.179Z,100.00
2022-12-19T05:57:07.598Z,100.00
2022-12-19T06:00:10.450Z,100.00
2022-12-19T06:03:14.385Z,100.00
2022-12-19T06:06:19.319Z,100.00
2022-12-19T06:09:21.461Z,100.00
2022-12-19T06:12:24.112Z,100.00
2022-12-19T06:15:26.309Z,100.00
2022-12-19T06:18:29.458Z,100.00
2022-12-19T06:21:31.675Z,100.00
2022-12-19T06:24:34.105Z,100.00
2022-12-19T06:27:36.292Z,100.00
2022-12-19T06:30:38.651Z,100.00
2022-12-19T06:33:41.577Z,100.00
2022-12-19T06:36:44.064Z,100.00
2022-12-19T06:39:47.866Z,100.00
2022-12-19T06:42:50.593Z,100.00
2022-12-19T06:45:52.781Z,100.00
2022-12-19T06:48:55.307Z,100.00
2022-12-19T06:51:57.589Z,100.00
2022-12-19T06:55:00.167Z,100.00
2022-12-19T06:58:02.265Z,100.00
2022-12-19T07:01:04.969Z,100.00
2022-12-19T07:04:11.364Z,100.00
2022-12-19T07:07:14.067Z,100.00
2022-12-19T07:10:16.360Z,100.00
2022-12-19T07:13:19.108Z,100.00
2022-12-19T07:16:21.353Z,100.00
2022-12-19T07:19:26.084Z,100.00
2022-12-19T07:22:33.064Z,100.00
2022-12-19T07:25:37.797Z,100.00
2022-12-19T07:28:40.250Z,100.00
2022-12-19T07:31:42.774Z,100.00
2022-12-19T07:34:45.192Z,100.00
2022-12-19T07:37:47.689Z,100.00
2022-12-19T07:40:50.888Z,100.00
2022-12-19T07:43:54.344Z,100.00
2022-12-19T07:46:57.365Z,100.00
2022-12-19T07:50:00.088Z,100.00
2022-12-19T07:53:02.737Z,100.00
2022-12-19T07:56:05.500Z,100.00
2022-12-19T07:59:08.515Z,100.00
2022-12-19T08:02:10.997Z,100.00
2022-12-19T08:05:14.261Z,100.00
2022-12-19T08:08:18.051Z,100.00
2022-12-19T08:11:29.662Z,100.00
2022-12-19T08:14:31.802Z,100.00
2022-12-19T08:17:34.451Z,100.00
2022-12-19T08:20:36.740Z,100.00
2022-12-19T08:23:39.314Z,100.00
2022-12-19T08:26:47.433Z,100.00
2022-12-19T08:29:50.320Z,98.27
2022-12-19T08:32:52.633Z,97.09
2022-12-19T08:35:55.158Z,96.67
2022-12-19T08:38:57.800Z,96.68
2022-12-19T08:42:00.826Z,92.75
2022-12-19T08:45:03.238Z,89.87
2022-12-19T08:48:06.611Z,88.75
2022-12-19T08:51:09.140Z,87.99
2022-12-19T08:54:12.221Z,88.06
2022-12-19T08:57:14.521Z,88.20
2022-12-19T09:00:17.449Z,89.02
2022-12-19T09:03:21.062Z,87.99
2022-12-19T09:06:26.395Z,87.15
2022-12-19T09:09:28.711Z,86.82
2022-12-19T09:12:31.128Z,87.14
2022-12-19T09:15:33.446Z,87.33
2022-12-19T09:18:37.941Z,87.29
2022-12-19T09:21:40.531Z,87.59
2022-12-19T09:24:42.980Z,87.60
2022-12-19T09:28:17.953Z,86.67
2022-12-19T09:31:10.784Z,87.19
2022-12-19T09:34:12.976Z,86.86
2022-12-19T09:37:17.694Z,85.67
2022-12-19T09:40:21.718Z,86.67
2022-12-19T09:43:47.439Z,86.26
2022-12-19T09:46:57.009Z,86.31
2022-12-19T09:50:02.167Z,84.87
2022-12-19T09:53:13.382Z,83.31
2022-12-19T09:56:16.010Z,81.72
2022-12-19T09:59:50.208Z,81.81
2022-12-19T10:02:58.902Z,80.27
2022-12-19T10:07:16.110Z,79.23
2022-12-19T10:11:26.564Z,76.59
2022-12-19T10:13:17.575Z,75.19
2022-12-19T10:17:23.832Z,75.62
2022-12-19T10:20:42.253Z,78.41
2022-12-19T10:23:51.083Z,80.66
2022-12-19T10:26:59.174Z,80.88
2022-12-19T10:30:21.827Z,80.62
2022-12-19T10:33:32.425Z,81.12
2022-12-19T10:37:12.872Z,80.77
2022-12-19T10:40:27.849Z,81.09
2022-12-19T10:43:40.807Z,80.32
2022-12-19T10:46:51.574Z,79.85
2022-12-19T10:49:54.001Z,80.26
2022-12-19T10:53:25.207Z,79.44
2022-12-19T10:56:37.056Z,79.77
2022-12-19T10:59:40.082Z,79.90
2022-12-19T11:02:48.141Z,78.80
2022-12-19T11:05:58.183Z,78.69
2022-12-19T11:09:25.049Z,79.00
2022-12-19T11:15:58.106Z,79.77
2022-12-19T11:21:49.148Z,78.52
2022-12-19T11:29:16.310Z,78.53
2022-12-19T11:29:38.526Z,78.96
2022-12-19T11:30:59.585Z,77.71
2022-12-19T11:33:23.353Z,79.30
2022-12-19T11:36:35.888Z,79.79
2022-12-19T11:39:47.076Z,79.40
2022-12-19T11:43:41.418Z,75.88
2022-12-19T11:46:52.688Z,74.01
2022-12-19T11:50:18.065Z,72.90
2022-12-19T11:53:28.697Z,69.95
2022-12-19T11:56:30.982Z,69.06
2022-12-19T11:59:38.324Z,71.01
2022-12-19T12:02:59.258Z,73.42
2022-12-19T12:06:11.758Z,74.53
2022-12-19T12:12:04.528Z,72.61
2022-12-19T12:22:32.894Z,74.74
2022-12-19T12:31:00.090Z,76.68
2022-12-19T12:31:06.910Z,78.25
2022-12-19T12:31:44.253Z,79.32
2022-12-19T12:31:53.471Z,79.44
2022-12-19T12:35:33.433Z,79.88
2022-12-19T12:39:14.296Z,80.03
2022-12-19T12:42:46.827Z,80.02
2022-12-19T12:45:49.676Z,78.48
2022-12-19T12:48:55.575Z,77.42
2022-12-19T12:52:00.655Z,77.38
2022-12-19T12:55:06.340Z,76.83
2022-12-19T12:58:46.101Z,76.93
2022-12-19T13:01:52.459Z,76.75
2022-12-19T13:05:01.133Z,77.53
2022-12-19T13:08:26.102Z,77.45
2022-12-19T13:11:47.217Z,78.15
2022-12-19T13:14:51.790Z,78.42
2022-12-19T13:17:55.690Z,79.50
2022-12-19T13:21:03.727Z,80.29
2022-12-19T13:24:24.598Z,80.61
2022-12-19T13:27:27.267Z,80.57
2022-12-19T13:30:32.228Z,79.91
2022-12-19T13:33:53.913Z,79.61
2022-12-19T13:40:00.097Z,78.42
2022-12-19T13:40:43.122Z,80.01
2022-12-19T13:43:49.762Z,80.95
2022-12-19T13:46:55.251Z,81.37
2022-12-19T13:49:58.659Z,82.48
2022-12-19T13:53:02.185Z,83.36
2022-12-19T13:56:12.377Z,84.10
2022-12-19T13:59:14.869Z,84.71
2022-12-19T14:02:27.315Z,85.17
2022-12-19T14:06:15.795Z,85.87
2022-12-19T14:11:23.263Z,85.61
2022-12-19T14:14:01.510Z,85.94
2022-12-19T14:16:19.815Z,86.30
2022-12-19T14:19:24.941Z,86.79
2022-12-19T14:22:27.355Z,86.95
2022-12-19T14:28:20.602Z,87.34
2022-12-19T14:29:17.639Z,87.83
2022-12-19T14:33:47.499Z,88.82
2022-12-19T14:36:08.613Z,88.89
2022-12-19T14:39:22.761Z,89.25
2022-12-19T14:43:56.344Z,90.30
2022-12-19T14:54:07.891Z,91.05
2022-12-19T14:54:18.065Z,90.27
2022-12-19T14:54:29.546Z,91.37
2022-12-19T14:57:01.459Z,92.19
2022-12-19T15:01:09.467Z,92.33
2022-12-19T15:04:50.766Z,92.10
2022-12-19T15:07:32.256Z,93.03
2022-12-19T15:11:08.833Z,93.65
2022-12-19T15:14:56.455Z,94.15
2022-12-19T15:17:25.333Z,93.88
2022-12-19T15:20:27.743Z,94.09
2022-12-19T15:23:30.461Z,94.59
2022-12-19T15:26:35.317Z,94.53
2022-12-19T15:29:37.419Z,94.47
2022-12-19T15:32:39.866Z,94.74
2022-12-19T15:35:42.677Z,95.45
2022-12-19T15:38:45.679Z,95.71
2022-12-19T15:41:51.040Z,96.14
2022-12-19T15:44:56.421Z,96.20
2022-12-19T15:47:58.895Z,95.91
2022-12-19T15:51:01.308Z,96.73
2022-12-19T15:54:46.482Z,96.14
2022-12-19T15:57:32.064Z,96.46
2022-12-19T16:00:36.587Z,96.37
2022-12-19T16:03:39.165Z,97.35
2022-12-19T16:06:41.484Z,96.60
2022-12-19T16:09:44.334Z,96.13
2022-12-19T16:12:51.740Z,95.52
2022-12-19T16:15:55.475Z,96.40
2022-12-19T16:18:57.615Z,97.19
2022-12-19T16:22:00.771Z,97.16
2022-12-19T16:25:03.072Z,96.11
2022-12-19T16:28:07.246Z,95.45
2022-12-19T16:31:16.620Z,94.88
2022-12-19T16:34:22.450Z,95.54
2022-12-19T16:37:31.793Z,95.08
2022-12-19T16:40:34.820Z,94.70
2022-12-19T16:43:40.112Z,94.53
2022-12-19T16:46:48.688Z,93.87
2022-12-19T16:49:52.665Z,93.68
2022-12-19T16:52:55.962Z,94.57
2022-12-19T16:55:59.880Z,94.05
2022-12-19T16:59:05.986Z,93.36
2022-12-19T17:02:42.179Z,93.42
2022-12-19T17:05:45.165Z,93.51
2022-12-19T17:08:47.815Z,93.52
2022-12-19T17:11:53.109Z,93.43
2022-12-19T17:14:55.243Z,93.48
2022-12-19T17:18:04.183Z,93.37
2022-12-19T17:21:06.501Z,92.91
2022-12-19T17:24:13.435Z,94.07
2022-12-19T17:27:17.356Z,92.51
2022-12-19T17:30:20.356Z,92.35
2022-12-19T17:33:34.395Z,92.20
2022-12-19T17:36:38.077Z,92.25
2022-12-19T17:39:42.114Z,91.82
2022-12-19T17:42:44.779Z,91.74
2022-12-19T17:45:47.084Z,91.52
2022-12-19T17:48:51.654Z,91.11
2022-12-19T17:51:53.907Z,91.25
2022-12-19T17:54:56.335Z,91.69
2022-12-19T17:57:58.495Z,91.47
2022-12-19T18:01:00.959Z,91.74
2022-12-19T18:04:03.721Z,92.20
2022-12-19T18:07:13.407Z,90.65
2022-12-19T18:10:18.836Z,90.74
2022-12-19T18:13:20.911Z,91.37
2022-12-19T18:16:27.402Z,91.59
2022-12-19T18:19:32.222Z,90.89
2022-12-19T18:22:34.686Z,91.27
2022-12-19T18:25:36.890Z,90.71
2022-12-19T18:28:40.623Z,91.00
2022-12-19T18:31:50.156Z,92.23
2022-12-19T18:34:53.413Z,90.82
2022-12-19T18:37:58.799Z,90.77
2022-12-19T18:41:01.439Z,90.87
2022-12-19T18:44:03.657Z,91.48
2022-12-19T18:47:12.875Z,91.61
2022-12-19T18:50:18.376Z,91.81
2022-12-19T18:53:22.396Z,91.67
2022-12-19T18:56:24.779Z,91.92
2022-12-19T18:59:27.628Z,92.24
2022-12-19T19:02:29.912Z,92.26
2022-12-19T19:05:35.597Z,92.67
2022-12-19T19:08:37.794Z,92.47
2022-12-19T19:11:40.983Z,92.59
2022-12-19T19:14:43.198Z,92.87
2022-12-19T19:17:48.203Z,93.15
2022-12-19T19:21:00.489Z,93.38
2022-12-19T19:24:17.329Z,93.74
2022-12-19T19:27:19.549Z,93.56
2022-12-19T19:30:22.529Z,93.88
2022-12-19T19:33:35.800Z,94.27
2022-12-19T19:36:42.411Z,94.90
2022-12-19T19:39:44.956Z,95.09
2022-12-19T19:42:47.667Z,95.32
2022-12-19T19:45:50.932Z,95.52
2022-12-19T19:48:53.253Z,95.80
2022-12-19T19:52:00.548Z,95.81
2022-12-19T19:55:09.490Z,95.96
2022-12-19T19:58:11.623Z,96.04
2022-12-19T20:01:14.400Z,96.20
2022-12-19T20:04:16.976Z,96.18
2022-12-19T20:07:19.485Z,96.63
2022-12-19T20:10:21.961Z,96.22
2022-12-19T20:13:24.651Z,96.59
2022-12-19T20:16:27.188Z,96.77
2022-12-19T20:19:29.393Z,96.76
2022-12-19T20:22:31.765Z,97.50
2022-12-19T20:25:35.551Z,96.88
2022-12-19T20:28:45.599Z,96.41
2022-12-19T20:31:50.421Z,96.47
2022-12-19T20:34:52.937Z,96.75
2022-12-19T20:37:55.225Z,96.42
2022-12-19T20:40:57.599Z,96.36
2022-12-19T20:44:00.174Z,96.75
2022-12-19T20:47:02.908Z,96.66
2022-12-19T20:50:06.042Z,96.90
2022-12-19T20:53:08.692Z,96.81
2022-12-19T20:56:18.840Z,96.46
2022-12-19T20:59:21.335Z,96.69
2022-12-19T21:02:23.608Z,97.16
2022-12-19T21:05:26.265Z,97.41
2022-12-19T21:08:28.575Z,97.31
2022-12-19T21:11:31.149Z,98.19
2022-12-19T21:14:33.282Z,96.78
2022-12-19T21:17:35.801Z,95.97
2022-12-19T21:20:38.606Z,97.06
2022-12-19T21:23:41.058Z,96.20
2022-12-19T21:26:43.282Z,96.20
2022-12-19T21:29:45.831Z,96.13
2022-12-19T21:32:49.112Z,96.51
2022-12-19T21:35:52.008Z,96.37
2022-12-19T21:38:56.918Z,96.50
2022-12-19T21:41:59.395Z,95.53
2022-12-19T21:45:01.570Z,95.28
2022-12-19T21:48:04.913Z,95.75
2022-12-19T21:51:08.974Z,96.29
2022-12-19T21:54:11.400Z,95.74
2022-12-19T21:57:13.540Z,95.45
2022-12-19T22:00:16.510Z,95.08
2022-12-19T22:03:19.016Z,96.86
2022-12-19T22:06:27.973Z,96.62
2022-12-19T22:09:31.148Z,96.05
2022-12-19T22:12:33.235Z,96.62
2022-12-19T22:15:36.590Z,96.76
2022-12-19T22:18:39.641Z,97.36
2022-12-19T22:21:42.766Z,97.26
2022-12-19T22:24:44.887Z,97.25
2022-12-19T22:27:47.269Z,97.07
2022-12-19T22:30:49.340Z,97.16
2022-12-19T22:33:54.161Z,97.29
2022-12-19T22:36:56.333Z,97.71
2022-12-19T22:40:00.228Z,98.22
2022-12-19T22:43:02.643Z,98.54
2022-12-19T22:46:21.911Z,99.30
2022-12-19T22:49:24.131Z,99.84
2022-12-19T22:52:26.532Z,100.00
2022-12-19T22:55:28.708Z,100.00
2022-12-19T22:58:31.136Z,100.00
2022-12-19T23:01:39.497Z,100.00
2022-12-19T23:04:42.500Z,100.00
2022-12-19T23:07:45.356Z,100.00
2022-12-19T23:10:52.893Z,100.00
2022-12-19T23:13:55.027Z,100.00
2022-12-19T23:16:57.448Z,100.00
2022-12-19T23:19:59.552Z,100.00
2022-12-19T23:23:01.991Z,100.00
2022-12-19T23:26:06.113Z,100.00
2022-12-19T23:29:13.840Z,100.00
2022-12-19T23:32:16.554Z,100.00
2022-12-19T23:35:19.114Z,100.00
2022-12-19T23:38:21.228Z,100.00
2022-12-19T23:41:24.556Z,100.00
2022-12-19T23:44:27.091Z,100.00
2022-12-19T23:47:29.518Z,100.00
2022-12-19T23:50:31.869Z,100.00
2022-12-19T23:53:35.050Z,100.00
2022-12-19T23:56:37.241Z,100.00
2022-12-19T23:59:39.705Z,100.00
